Time;durP1;ratioP1;P1;durP2;ratioP2;P2;SDS_P1;SDS_P2;PMS_P1;PMS_P2;Temp;Humidity;BMP_temperature;BMP_pressure;BME280_temperature;BME280_humidity;BME280_pressure;Samples;Min_cycle;Max_cycle;Signal;HPM_P1;HPM_P2
2023/10/14 00:01:36;;;;;;;;;;;21.40;46.90;;;18.09;68.76;95183.88;4994033;28;19913;-45
2023/10/14 00:04:09;;;;;;;;;;;21.50;46.70;;;18.15;68.49;95179.09;4992805;28;20146;-47
2023/10/14 00:06:38;;;;;;;;;;;21.60;46.70;;;18.20;68.11;95176.22;4990366;28;19910;-48
2023/10/14 00:09:14;;;;;;;;;;;21.70;46.70;;;18.26;67.85;95191.09;4992729;28;19913;-45
2023/10/14 00:11:56;;;;;;;;;;;21.80;46.80;;;18.32;67.49;95189.03;4985935;28;20010;-45
2023/10/14 00:14:23;;;;;;;;;;;21.80;46.60;;;18.33;67.28;95185.22;4992936;28;20008;-48
2023/10/14 00:16:49;;;;;;;;;;;21.90;46.40;;;18.34;67.04;95182.22;4992949;28;19951;-51
2023/10/14 00:19:22;;;;;;;;;;;21.90;46.40;;;18.38;66.84;95180.44;4993560;28;20398;-45
2023/10/14 00:21:50;;;;;;;;;;;22.00;46.50;;;18.40;66.85;95183.63;4992624;28;20000;-45
2023/10/14 00:24:27;;;;;;;;;;;22.00;46.30;;;18.40;66.74;95178.22;4993273;28;20471;-45
2023/10/14 00:26:57;;;;;;;;;;;22.00;46.30;;;18.41;66.47;95166.31;4991865;28;19921;-45
2023/10/14 00:29:23;;;;;;;;;;;22.10;46.20;;;18.42;66.45;95162.50;4993268;28;19920;-48
2023/10/14 00:31:52;;;;;;;;;;;22.10;46.20;;;18.43;65.97;95158.69;4992264;28;20333;-46
2023/10/14 00:34:25;;;;;;;;;;;22.10;46.30;;;18.44;65.68;95149.47;4992989;28;20012;-45
2023/10/14 00:36:55;;;;;;;;;;;22.10;46.20;;;18.46;65.84;95147.25;4992711;28;19909;-49
2023/10/14 00:39:24;;;;;;;;;;;22.10;46.20;;;18.46;65.58;95154.56;4991890;28;19910;-48
2023/10/14 00:41:50;;;;;;;;;;;22.20;46.20;;;18.48;65.04;95158.50;4993072;28;20411;-47
2023/10/14 00:44:24;;;;;;;;;;;22.20;46.20;;;18.56;64.87;95172.28;4991799;28;19913;-45
2023/10/14 00:46:51;;;;;;;;;;;22.20;46.20;;;18.57;64.98;95182.72;4991569;28;20392;-45
2023/10/14 00:49:21;;;;;;;;;;;22.20;46.10;;;18.58;64.81;95188.91;4992687;28;19909;-50
2023/10/14 00:51:53;;;;;;;;;;;22.30;46.00;;;18.58;65.22;95178.13;4992069;28;19913;-46
2023/10/14 00:54:40;;;;;;;;;;;22.30;45.90;;;18.57;65.27;95176.56;4992699;28;20405;-50
2023/10/14 00:59:50;;;;;;;;;;;22.30;45.80;;;18.53;65.44;95159.44;4992800;28;19913;-45
2023/10/14 01:02:29;;;;;;;;;;;22.30;45.70;;;18.50;64.89;95164.38;4991634;28;19959;-46
2023/10/14 01:04:56;;;;;;;;;;;22.30;45.90;;;18.57;65.08;95171.94;4992290;28;19916;-45
2023/10/14 01:07:22;;;;;;;;;;;22.30;45.90;;;18.54;64.79;95169.09;4990182;28;20388;-45
2023/10/14 01:12:16;;;;;;;;;;;22.30;46.00;;;18.61;63.99;95161.28;4992142;28;19913;-45
2023/10/14 01:14:47;;;;;;;;;;;22.30;46.00;;;18.65;63.99;95176.50;4990575;28;20003;-46
2023/10/14 01:17:25;;;;;;;;;;;22.40;46.10;;;18.68;64.10;95180.47;4991703;28;19913;-45
2023/10/14 01:19:51;;;;;;;;;;;22.40;46.10;;;18.68;63.98;95175.88;4991508;28;20153;-45
2023/10/14 01:22:18;;;;;;;;;;;22.40;46.20;;;18.68;63.83;95173.16;4992193;28;19996;-47
2023/10/14 01:24:44;;;;;;;;;;;22.40;46.10;;;18.69;64.02;95177.44;4991946;28;19915;-47
2023/10/14 01:27:13;;;;;;;;;;;22.40;46.10;;;18.70;63.64;95175.53;4990755;28;19909;-46
2023/10/14 01:29:39;;;;;;;;;;;22.40;46.20;;;18.70;63.17;95176.31;4991702;28;19909;-46
2023/10/14 01:37:59;;;;;;;;;;;22.50;46.20;;;18.70;66.70;95170.91;4991130;28;19909;-52
2023/10/14 01:43:08;;;;;;;;;;;22.30;46.50;;;18.43;69.82;95161.41;4991145;28;20549;-47
2023/10/14 01:45:41;;;;;;;;;;;22.10;46.80;;;18.32;70.36;95156.69;4986960;28;19913;-45
2023/10/14 01:50:37;;;;;;;;;;;21.80;47.10;;;18.09;71.74;95159.63;4989927;28;19913;-47
2023/10/14 01:53:11;;;;;;;;;;;21.80;47.50;;;18.05;72.32;95150.59;4991876;28;19921;-52
2023/10/14 01:55:43;;;;;;;;;;;21.70;48.20;;;17.96;72.32;95144.44;4991544;28;19910;-48
2023/10/14 01:58:12;;;;;;;;;;;21.60;47.80;;;17.91;72.68;95147.31;4986011;28;20364;-45
2023/10/14 02:00:39;;;;;;;;;;;21.60;48.00;;;17.86;72.97;95140.19;4989649;28;19910;-47
2023/10/14 02:03:09;;;;;;;;;;;21.60;48.10;;;17.85;73.25;95159.38;4990956;28;20016;-47
2023/10/14 02:05:41;;;;;;;;;;;21.60;48.20;;;17.83;73.85;95157.00;4991828;28;20261;-45
2023/10/14 02:08:16;;;;;;;;;;;21.60;48.40;;;17.84;73.86;95155.88;4991050;28;19918;-50
2023/10/14 02:10:47;;;;;;;;;;;21.60;48.40;;;17.83;73.71;95145.41;4990825;28;19965;-45
2023/10/14 02:13:22;;;;;;;;;;;21.60;48.30;;;17.80;73.17;95136.09;4991466;28;20015;-45
2023/10/14 02:15:51;;;;;;;;;;;21.60;48.30;;;17.76;73.17;95135.09;4987306;28;19968;-49
2023/10/14 02:18:22;;;;;;;;;;;21.60;48.30;;;17.75;73.23;95139.72;4991374;28;19920;-45
2023/10/14 02:21:05;;;;;;;;;;;21.60;48.50;;;17.77;72.78;95123.28;4990256;28;20342;-45
2023/10/14 02:23:49;;;;;;;;;;;21.60;48.60;;;17.81;74.01;95113.44;4991388;28;19927;-48
2023/10/14 02:26:25;;;;;;;;;;;21.60;48.90;;;17.82;73.61;95112.31;4990644;28;19909;-47
2023/10/14 02:28:53;;;;;;;;;;;21.60;49.10;;;17.78;73.48;95122.94;4991213;28;19932;-50
2023/10/14 02:34:05;;;;;;;;;;;21.50;49.50;;;17.78;73.35;95131.03;4990455;28;20284;-50
2023/10/14 02:36:35;;;;;;;;;;;21.50;49.50;;;17.78;73.05;95133.72;4990956;28;19951;-50
2023/10/14 02:39:03;;;;;;;;;;;21.50;49.50;;;17.80;72.86;95136.09;4990492;28;20015;-49
2023/10/14 02:41:31;;;;;;;;;;;21.50;49.50;;;17.82;72.74;95128.47;4990928;28;20399;-48
2023/10/14 02:44:44;;;;;;;;;;;21.50;49.50;;;17.86;72.60;95140.19;4990500;28;19956;-47
2023/10/14 02:46:47;;;;;;;;;;;21.60;49.40;;;17.88;72.23;95137.19;4988364;28;19921;-45
2023/10/14 02:49:19;;;;;;;;;;;21.60;49.30;;;17.88;72.33;95145.25;4987455;28;19920;-45
2023/10/14 02:51:45;;;;;;;;;;;21.60;49.20;;;17.89;72.53;95149.53;4986296;28;19972;-48
2023/10/14 02:54:15;;;;;;;;;;;21.70;49.30;;;17.89;72.05;95134.16;4990861;28;19909;-46
2023/10/14 02:59:23;;;;;;;;;;;21.70;49.10;;;17.87;71.86;95139.09;4991318;28;19920;-48
2023/10/14 03:02:09;;;;;;;;;;;21.70;49.20;;;17.90;71.50;95148.44;4989803;28;19999;-49
2023/10/14 03:07:28;;;;;;;;;;;21.70;49.00;;;17.95;70.94;95157.09;4991049;28;19956;-46
2023/10/14 03:12:38;;;;;;;;;;;21.70;48.80;;;17.91;70.55;95147.31;4990616;28;20392;-45
2023/10/14 03:15:19;;;;;;;;;;;21.70;48.80;;;17.93;69.95;95148.56;4989817;28;19909;-47
2023/10/14 03:17:56;;;;;;;;;;;21.70;48.80;;;17.95;69.15;95146.34;4990971;28;19916;-46
2023/10/14 03:23:18;;;;;;;;;;;21.80;48.70;;;18.00;70.67;95138.09;4993879;28;19963;-50
2023/10/14 03:25:52;;;;;;;;;;;21.80;48.70;;;18.00;71.00;95124.63;4994121;28;19910;-50
2023/10/14 03:28:21;;;;;;;;;;;21.80;48.80;;;17.96;72.49;95129.06;4991817;28;19917;-48
2023/10/14 03:30:55;;;;;;;;;;;21.80;49.50;;;17.96;73.34;95133.69;4993878;28;20386;-51
2023/10/14 03:33:23;;;;;;;;;;;21.70;48.90;;;17.86;74.21;95129.41;4993426;28;20343;-47
2023/10/14 03:41:10;;;;;;;;;;;21.50;49.30;;;17.62;75.27;95143.38;4993869;28;19964;-47
2023/10/14 03:46:32;;;;;;;;;;;21.40;49.80;;;17.62;75.23;95164.16;4991721;28;20368;-45
2023/10/14 03:49:06;;;;;;;;;;;21.40;49.80;;;17.58;75.42;95164.78;4992075;28;19952;-50
2023/10/14 03:51:35;;;;;;;;;;;21.40;50.50;;;17.56;75.77;95169.69;4991687;28;20324;-50
2023/10/14 03:54:12;;;;;;;;;;;21.30;49.70;;;17.52;76.26;95166.06;4994003;28;19914;-46
2023/10/14 03:56:44;;;;;;;;;;;21.30;49.80;;;17.51;76.60;95158.28;4984846;28;19917;-45
2023/10/14 03:59:12;;;;;;;;;;;21.30;50.00;;;17.48;77.75;95165.09;4994157;28;19963;-45
2023/10/14 04:04:24;;;;;;;;;;;21.30;50.60;;;17.44;79.88;95166.84;4993094;28;19916;-47
2023/10/14 04:09:39;;;;;;;;;;;21.20;50.40;;;17.35;80.79;95169.53;4992770;28;20459;-46
2023/10/14 04:12:08;;;;;;;;;;;21.20;50.60;;;17.31;82.35;95173.97;4993188;28;19914;-45
2023/10/14 04:14:36;;;;;;;;;;;21.10;50.90;;;17.29;83.24;95176.19;4992633;28;19910;-46
2023/10/14 04:19:44;;;;;;;;;;;21.00;51.10;;;17.19;85.17;95176.50;4993557;28;20352;-45
2023/10/14 04:22:32;;;;;;;;;;;20.90;51.30;;;17.16;85.80;95193.28;4992303;28;19909;-45
2023/10/14 04:30:21;;;;;;;;;;;20.80;51.40;;;16.96;88.92;95189.31;4992975;28;20418;-49
2023/10/14 04:35:24;;;;;;;;;;;20.70;51.60;;;16.86;91.80;95190.41;4993209;28;19967;-45
2023/10/14 04:37:51;;;;;;;;;;;20.60;51.70;;;16.79;93.72;95186.56;4992986;28;19917;-46
2023/10/14 04:43:49;;;;;;;;;;;20.50;51.90;;;16.60;96.90;95194.88;4993066;28;19910;-45
2023/10/14 04:45:57;;;;;;;;;;;20.40;52.20;;;16.50;98.01;95197.84;4992646;28;20360;-45
2023/10/14 04:48:35;;;;;;;;;;;20.30;52.50;;;16.44;99.48;95207.94;4992723;28;20499;-45
2023/10/14 04:51:50;;;;;;;;;;;20.20;52.80;;;16.39;99.97;95202.72;4987520;28;19917;-45
2023/10/14 04:54:00;;;;;;;;;;;20.10;52.90;;;16.28;100.00;95199.50;4979605;28;19909;-45
2023/10/14 04:56:32;;;;;;;;;;;20.00;53.00;;;16.24;100.00;95197.75;4992359;28;19917;-44
2023/10/14 04:58:59;;;;;;;;;;;20.00;53.30;;;16.18;100.00;95200.56;4992877;28;20330;-50
2023/10/14 05:01:25;;;;;;;;;;;19.90;53.50;;;16.12;100.00;95204.50;4992678;28;19932;-43
2023/10/14 05:03:57;;;;;;;;;;;19.80;53.60;;;16.07;100.00;95207.31;4991488;28;19959;-48
2023/10/14 05:06:29;;;;;;;;;;;19.70;53.80;;;15.98;100.00;95216.41;4992782;28;19959;-44
2023/10/14 05:08:56;;;;;;;;;;;19.70;54.00;;;15.94;100.00;95211.66;4991581;28;19956;-45
2023/10/14 05:11:25;;;;;;;;;;;19.60;54.30;;;15.92;100.00;95208.50;4991853;28;20399;-46
2023/10/14 05:14:07;;;;;;;;;;;19.60;54.40;;;15.84;100.00;95211.13;4991464;28;19917;-43
2023/10/14 05:19:41;;;;;;;;;;;19.50;54.90;;;15.75;100.00;95210.28;4992772;28;19955;-46
2023/10/14 05:22:18;;;;;;;;;;;19.50;55.20;;;15.69;100.00;95218.44;4991131;28;19920;-46
2023/10/14 05:24:49;;;;;;;;;;;19.40;55.50;;;15.67;100.00;95217.97;4989907;28;19909;-45
2023/10/14 05:27:21;;;;;;;;;;;19.40;56.60;;;15.64;100.00;95231.19;4990273;28;20372;-46
2023/10/14 05:29:52;;;;;;;;;;;19.40;56.20;;;15.64;100.00;95234.66;4991743;28;19913;-42
2023/10/14 05:32:23;;;;;;;;;;;19.40;56.80;;;15.58;100.00;95230.50;4988003;28;19958;-44
2023/10/14 05:34:51;;;;;;;;;;;19.30;57.20;;;15.55;100.00;95238.38;4991417;28;20036;-48
2023/10/14 05:37:17;;;;;;;;;;;19.30;57.90;;;15.58;100.00;95243.16;4991598;28;20054;-43
2023/10/14 05:39:43;;;;;;;;;;;19.30;58.20;;;15.57;100.00;95249.59;4990477;28;19913;-46
2023/10/14 05:42:16;;;;;;;;;;;19.20;58.50;;;15.50;100.00;95245.44;4987948;28;19936;-48
2023/10/14 05:44:47;;;;;;;;;;;19.20;59.10;;;15.41;100.00;95251.81;4988752;28;20533;-46
2023/10/14 05:47:22;;;;;;;;;;;19.10;59.60;;;15.37;100.00;95257.00;4991965;28;19913;-48
2023/10/14 05:49:47;;;;;;;;;;;19.10;60.70;;;15.33;100.00;95269.47;4991819;28;20291;-47
2023/10/14 05:52:14;;;;;;;;;;;19.00;60.60;;;15.34;100.00;95259.50;4988228;28;19917;-47
2023/10/14 05:54:45;;;;;;;;;;;19.00;60.60;;;15.26;100.00;95261.81;4991667;28;19967;-46
2023/10/14 05:57:11;;;;;;;;;;;18.90;61.70;;;15.24;100.00;95265.91;4990814;28;19918;-45
2023/10/14 05:59:37;;;;;;;;;;;18.90;61.20;;;15.19;100.00;95271.34;4991849;28;19909;-46
2023/10/14 06:02:08;;;;;;;;;;;18.90;61.40;;;15.16;100.00;95264.69;4990476;28;19936;-46
2023/10/14 06:04:39;;;;;;;;;;;18.80;61.70;;;15.14;100.00;95263.44;4991560;28;19917;-46
2023/10/14 06:07:18;;;;;;;;;;;18.80;61.90;;;15.12;100.00;95268.28;4966717;28;32810;-45
2023/10/14 06:09:47;;;;;;;;;;;18.80;61.70;;;15.08;100.00;95270.00;4997184;28;19909;-46
2023/10/14 06:12:14;;;;;;;;;;;18.80;61.90;;;15.00;100.00;95272.28;4991192;28;19960;-48
2023/10/14 06:14:45;;;;;;;;;;;18.70;61.90;;;14.94;100.00;95268.09;4988179;28;20292;-46
2023/10/14 06:17:11;;;;;;;;;;;18.70;62.10;;;14.91;100.00;95268.72;4991672;28;20431;-44
2023/10/14 06:19:38;;;;;;;;;;;18.60;62.30;;;14.87;100.00;95270.41;4990333;28;19980;-47
2023/10/14 06:22:07;;;;;;;;;;;18.60;62.40;;;14.82;100.00;95265.13;4986928;28;19918;-47
2023/10/14 06:24:33;;;;;;;;;;;18.60;62.90;;;14.81;100.00;95288.47;4988523;28;19917;-45
2023/10/14 06:27:08;;;;;;;;;;;18.50;63.00;;;14.77;100.00;95284.03;4989905;28;19949;-48
2023/10/14 06:29:35;;;;;;;;;;;18.50;63.00;;;14.75;100.00;95280.84;4990291;28;19909;-47
2023/10/14 06:32:03;;;;;;;;;;;18.50;63.30;;;14.76;100.00;95285.91;4989090;28;19957;-49
2023/10/14 06:34:32;;;;;;;;;;;18.40;63.20;;;14.71;100.00;95294.03;4990874;28;19913;-50
2023/10/14 06:37:02;;;;;;;;;;;18.40;63.40;;;14.69;100.00;95293.53;4991095;28;20339;-48
2023/10/14 06:39:28;;;;;;;;;;;18.40;63.30;;;14.67;100.00;95303.00;4990150;28;19909;-49
2023/10/14 06:41:55;;;;;;;;;;;18.40;63.50;;;14.63;100.00;95299.28;4983853;28;19980;-46
2023/10/14 06:44:27;;;;;;;;;;;18.30;63.60;;;14.64;100.00;95298.22;4987327;28;19948;-47
2023/10/14 06:46:56;;;;;;;;;;;18.30;63.60;;;14.62;100.00;95295.03;4990671;28;19920;-47
2023/10/14 06:49:32;;;;;;;;;;;18.30;63.60;;;14.57;100.00;95287.88;4990167;28;20032;-46
2023/10/14 06:52:01;;;;;;;;;;;18.30;63.70;;;14.54;100.00;95296.50;4989574;28;20269;-45
2023/10/14 06:54:26;;;;;;;;;;;18.30;64.10;;;14.57;100.00;95286.00;4990584;28;19916;-48
2023/10/14 06:56:53;;;;;;;;;;;18.30;64.00;;;14.56;100.00;95295.13;4992655;28;19984;-46
2023/10/14 06:59:20;;;;;;;;;;;18.30;64.20;;;14.50;100.00;95296.25;4993893;28;19919;-46
2023/10/14 07:01:46;;;;;;;;;;;18.30;64.60;;;14.52;100.00;95290.66;4994809;28;19909;-48
2023/10/14 07:04:12;;;;;;;;;;;18.30;64.80;;;14.55;100.00;95292.75;4993911;28;20344;-46
2023/10/14 07:06:39;;;;;;;;;;;18.30;64.80;;;14.53;100.00;95300.28;4995046;28;19916;-46
2023/10/14 07:09:16;;;;;;;;;;;18.40;64.80;;;14.55;100.00;95300.78;4994010;28;20008;-46
2023/10/14 07:11:45;;;;;;;;;;;18.40;64.90;;;14.54;100.00;95310.72;4994245;28;19923;-46
2023/10/14 07:14:10;;;;;;;;;;;18.40;64.90;;;14.59;100.00;95301.78;4991611;28;20423;-46
2023/10/14 07:16:36;;;;;;;;;;;18.40;64.90;;;14.55;100.00;95304.25;4994941;28;19913;-47
2023/10/14 07:19:02;;;;;;;;;;;18.50;65.10;;;14.62;100.00;95311.13;4994530;28;19913;-48
2023/10/14 07:21:29;;;;;;;;;;;18.50;65.00;;;14.67;100.00;95319.84;4993541;28;19913;-46
2023/10/14 07:23:56;;;;;;;;;;;18.60;65.10;;;14.74;100.00;95328.28;4994632;28;19949;-51
2023/10/14 07:26:22;;;;;;;;;;;18.70;64.90;;;14.76;100.00;95336.03;4993575;28;19910;-48
2023/10/14 07:28:51;;;;;;;;;;;18.80;64.70;;;14.81;100.00;95336.75;4994518;28;20107;-49
2023/10/14 07:31:19;;;;;;;;;;;18.90;64.70;;;14.87;100.00;95334.75;4994330;28;20296;-53
2023/10/14 07:33:45;;;;;;;;;;;18.90;64.50;;;14.91;100.00;95346.47;4993660;28;20471;-51
2023/10/14 07:36:11;;;;;;;;;;;19.00;64.50;;;14.95;100.00;95350.16;4994277;28;20016;-53
2023/10/14 07:38:38;;;;;;;;;;;19.10;64.40;;;15.00;100.00;95339.31;4993114;28;19944;-51
2023/10/14 07:41:07;;;;;;;;;;;19.10;64.30;;;15.08;100.00;95339.75;4993168;28;20004;-54
2023/10/14 07:43:33;;;;;;;;;;;19.20;64.20;;;15.13;100.00;95340.41;4993572;28;19910;-50
2023/10/14 07:46:02;;;;;;;;;;;19.20;64.00;;;15.16;100.00;95344.41;4988324;28;19910;-54
2023/10/14 07:48:28;;;;;;;;;;;19.30;64.00;;;15.16;100.00;95347.88;4992956;28;19916;-53
2023/10/14 07:50:56;;;;;;;;;;;19.30;63.80;;;15.17;100.00;95348.69;4992501;28;19917;-50
2023/10/14 07:53:22;;;;;;;;;;;19.30;63.80;;;15.23;100.00;95352.81;4993267;28;20387;-52
2023/10/14 07:55:51;;;;;;;;;;;19.30;63.70;;;15.21;100.00;95347.78;4992939;28;20419;-55
2023/10/14 07:58:23;;;;;;;;;;;19.30;63.70;;;15.26;100.00;95341.50;4993698;28;20384;-50
2023/10/14 08:00:51;;;;;;;;;;;19.30;63.70;;;15.28;100.00;95350.06;4994391;28;19916;-48
2023/10/14 08:03:25;;;;;;;;;;;19.30;63.70;;;15.28;100.00;95344.69;4989821;28;19932;-48
2023/10/14 08:05:54;;;;;;;;;;;19.30;63.60;;;15.28;100.00;95347.38;4994013;28;19910;-48
2023/10/14 08:08:22;;;;;;;;;;;19.30;63.50;;;15.28;100.00;95339.31;4992446;28;19972;-48
2023/10/14 08:10:51;;;;;;;;;;;19.40;63.40;;;15.31;100.00;95330.66;4994045;28;20383;-48
2023/10/14 08:13:21;;;;;;;;;;;19.50;63.40;;;15.42;100.00;95339.31;4993500;28;19910;-48
2023/10/14 08:15:53;;;;;;;;;;;19.50;63.20;;;15.47;100.00;95333.81;4992672;28;19962;-48
2023/10/14 08:18:23;;;;;;;;;;;19.70;63.20;;;15.48;100.00;95338.09;4993795;28;19909;-49
2023/10/14 08:20:54;;;;;;;;;;;19.70;63.30;;;15.56;100.00;95337.38;4992874;28;19960;-49
2023/10/14 08:23:24;;;;;;;;;;;19.70;63.20;;;15.47;100.00;95325.78;4993681;28;19914;-48
2023/10/14 08:25:54;;;;;;;;;;;19.70;63.30;;;15.64;100.00;95323.25;4992887;28;19913;-53
2023/10/14 08:28:22;;;;;;;;;;;19.90;63.20;;;15.90;100.00;95323.50;4991252;28;19913;-50
2023/10/14 08:30:50;;;;;;;;;;;20.30;63.10;;;16.18;100.00;95328.75;4993393;28;19913;-52
2023/10/14 08:33:23;;;;;;;;;;;20.70;62.90;;;16.31;100.00;95327.09;4992467;28;19924;-49
2023/10/14 08:35:52;;;;;;;;;;;20.90;62.60;;;16.37;100.00;95323.97;4993239;28;19913;-51
2023/10/14 08:38:22;;;;;;;;;;;21.00;62.30;;;16.36;100.00;95319.72;4992547;28;19909;-50
2023/10/14 08:40:52;;;;;;;;;;;21.00;62.00;;;16.41;100.00;95318.78;4989880;28;19928;-49
2023/10/14 08:43:25;;;;;;;;;;;21.10;61.90;;;16.67;100.00;95324.28;4989243;28;19909;-53
2023/10/14 08:45:56;;;;;;;;;;;21.50;61.70;;;17.02;100.00;95319.09;4989063;28;19996;-49
2023/10/14 08:48:26;;;;;;;;;;;21.90;61.40;;;17.30;100.00;95319.66;4990717;28;19917;-49
2023/10/14 08:50:57;;;;;;;;;;;22.30;61.20;;;17.68;98.20;95319.88;4988539;28;19917;-49
2023/10/14 08:53:27;;;;;;;;;;;22.80;60.40;;;17.89;95.13;95320.03;4990719;28;19913;-51
2023/10/14 08:55:55;;;;;;;;;;;23.20;60.00;;;18.23;93.71;95321.94;4988202;28;19925;-52
2023/10/14 08:58:23;;;;;;;;;;;23.70;59.40;;;18.57;89.54;95322.97;4992702;28;19909;-49
2023/10/14 09:00:52;;;;;;;;;;;24.10;58.80;;;19.09;89.85;95311.25;4992861;28;20013;-50
2023/10/14 09:03:18;;;;;;;;;;;24.40;58.40;;;19.27;86.58;95310.03;4991650;28;19916;-50
2023/10/14 09:05:45;;;;;;;;;;;24.70;58.20;;;19.56;87.95;95303.81;4991688;28;19988;-48
2023/10/14 09:08:17;;;;;;;;;;;24.80;57.90;;;19.74;84.04;95298.31;4991035;28;19909;-48
2023/10/14 09:10:44;;;;;;;;;;;25.10;57.50;;;19.74;83.85;95307.22;4986197;28;20342;-48
2023/10/14 09:13:13;;;;;;;;;;;25.20;57.10;;;19.90;82.05;95310.13;4990797;28;19962;-50
2023/10/14 09:15:43;;;;;;;;;;;25.40;56.80;;;19.90;81.05;95309.31;4989952;28;19932;-47
2023/10/14 09:18:21;;;;;;;;;;;25.60;56.40;;;19.87;80.60;95294.56;4988479;28;19914;-46
2023/10/14 09:20:56;;;;;;;;;;;25.50;56.10;;;19.65;79.22;95301.09;4987902;28;19920;-51
2023/10/14 09:23:23;;;;;;;;;;;25.40;55.60;;;19.37;80.88;95303.47;4989603;28;19910;-49
2023/10/14 09:25:58;;;;;;;;;;;25.20;55.30;;;19.41;82.33;95304.41;4989967;28;20409;-49
2023/10/14 09:28:33;;;;;;;;;;;25.00;55.20;;;19.58;82.31;95306.97;4990270;28;19944;-48
2023/10/14 09:31:03;;;;;;;;;;;25.00;55.30;;;19.63;80.42;95301.38;4990245;28;19913;-47
2023/10/14 09:33:32;;;;;;;;;;;25.10;55.30;;;19.66;79.59;95288.38;4989533;28;19920;-51
2023/10/14 09:36:06;;;;;;;;;;;25.10;55.20;;;19.64;79.96;95294.88;4990405;28;19916;-51
2023/10/14 09:38:33;;;;;;;;;;;25.00;55.00;;;19.60;80.94;95298.56;4988296;28;19917;-47
2023/10/14 09:41:04;;;;;;;;;;;25.00;54.90;;;19.31;80.84;95294.75;4984833;28;20365;-48
2023/10/14 09:43:32;;;;;;;;;;;24.90;54.70;;;19.57;85.98;95291.88;4990940;28;19924;-52
2023/10/14 09:46:03;;;;;;;;;;;24.80;54.80;;;19.56;87.07;95284.91;4992207;28;19978;-47
2023/10/14 09:48:36;;;;;;;;;;;24.70;54.80;;;19.42;83.91;95285.16;4991271;28;19993;-50
2023/10/14 09:51:07;;;;;;;;;;;24.60;54.80;;;19.12;81.93;95276.28;4991641;28;20006;-47
2023/10/14 09:53:36;;;;;;;;;;;24.50;54.80;;;19.00;84.05;95270.81;4991012;28;20015;-52
2023/10/14 09:56:10;;;;;;;;;;;24.40;54.70;;;18.96;83.91;95280.66;4987038;28;20292;-49
2023/10/14 09:58:43;;;;;;;;;;;24.20;54.80;;;18.86;84.42;95283.72;4992061;28;19921;-48
2023/10/14 10:01:19;;;;;;;;;;;24.00;55.00;;;18.71;87.08;95285.81;4989194;28;19963;-50
2023/10/14 10:04:34;;;;;;;;;;;23.80;55.10;;;18.43;89.24;95280.03;4991829;28;20315;-48
2023/10/14 10:07:31;;;;;;;;;;;23.70;55.00;;;18.52;92.48;95266.53;4990048;28;19949;-49
2023/10/14 10:10:13;;;;;;;;;;;23.50;55.10;;;18.57;94.68;95274.44;4989291;28;19910;-53
2023/10/14 10:12:42;;;;;;;;;;;23.50;55.30;;;18.65;97.67;95286.31;4990651;28;19913;-49
2023/10/14 10:15:09;;;;;;;;;;;23.40;55.50;;;18.51;96.12;95281.13;4989875;28;19991;-51
2023/10/14 10:17:39;;;;;;;;;;;23.30;55.70;;;18.39;95.44;95284.47;4991033;28;20429;-54
2023/10/14 10:20:12;;;;;;;;;;;23.20;55.90;;;18.35;98.17;95288.16;4987369;28;19917;-50
2023/10/14 10:22:41;;;;;;;;;;;23.20;56.00;;;18.16;96.46;95293.88;4990901;28;19910;-52
2023/10/14 10:25:09;;;;;;;;;;;23.10;56.10;;;18.06;100.00;95289.63;4990955;28;19916;-47
2023/10/14 10:27:36;;;;;;;;;;;22.90;56.20;;;17.90;100.00;95283.94;4989856;28;20014;-47
2023/10/14 10:30:07;;;;;;;;;;;22.70;56.50;;;17.77;100.00;95282.97;4991068;28;20277;-45
2023/10/14 10:32:33;;;;;;;;;;;22.50;56.70;;;17.65;100.00;95284.69;4995351;28;19966;-45
2023/10/14 10:35:13;;;;;;;;;;;22.20;57.00;;;17.63;100.00;95276.91;4995225;28;19917;-50
2023/10/14 10:37:53;;;;;;;;;;;21.90;57.20;;;17.46;100.00;95291.19;4994668;28;20015;-45
2023/10/14 10:40:27;;;;;;;;;;;21.70;57.60;;;17.21;100.00;95313.47;4995641;28;20411;-47
2023/10/14 10:43:09;;;;;;;;;;;21.50;58.00;;;17.11;100.00;95304.56;4994311;28;19913;-46
2023/10/14 10:45:40;;;;;;;;;;;21.20;58.20;;;16.95;100.00;95295.31;4995125;28;19962;-47
2023/10/14 10:48:14;;;;;;;;;;;21.00;58.50;;;16.87;100.00;95302.25;4994421;28;19952;-47
2023/10/14 10:50:49;;;;;;;;;;;20.90;58.80;;;16.76;100.00;95297.47;5008568;28;19917;-46
2023/10/14 10:53:19;;;;;;;;;;;20.80;59.00;;;16.71;100.00;95292.22;4995354;28;19909;-45
2023/10/14 10:55:49;;;;;;;;;;;20.70;59.20;;;16.65;100.00;95297.72;4993915;28;19909;-45
2023/10/14 10:58:16;;;;;;;;;;;20.60;59.20;;;16.46;100.00;95283.72;4995026;28;20443;-46
2023/10/14 11:00:45;;;;;;;;;;;20.50;59.50;;;16.34;100.00;95294.25;4994372;28;20334;-45
2023/10/14 11:03:16;;;;;;;;;;;20.40;59.80;;;16.31;100.00;95284.88;4995263;28;19913;-46
2023/10/14 11:05:45;;;;;;;;;;;20.30;60.00;;;16.18;100.00;95291.94;4993885;28;20198;-45
2023/10/14 11:08:15;;;;;;;;;;;20.30;60.30;;;16.05;100.00;95278.56;4995164;28;19909;-48
2023/10/14 11:10:43;;;;;;;;;;;20.20;60.70;;;16.06;100.00;95278.25;4994858;28;19914;-47
2023/10/14 11:13:11;;;;;;;;;;;20.20;61.10;;;16.01;100.00;95283.75;4993878;28;19909;-46
2023/10/14 11:15:50;;;;;;;;;;;20.10;61.60;;;16.01;100.00;95281.06;4989306;28;19937;-46
2023/10/14 11:18:18;;;;;;;;;;;20.10;61.60;;;16.04;100.00;95291.19;4993560;28;19917;-46
2023/10/14 11:20:46;;;;;;;;;;;20.20;61.70;;;16.00;100.00;95276.78;4994171;28;20003;-48
2023/10/14 11:23:16;;;;;;;;;;;20.20;61.90;;;16.04;100.00;95274.28;4994424;28;20280;-45
2023/10/14 11:25:45;;;;;;;;;;;20.20;61.90;;;16.03;100.00;95280.78;4991507;28;19920;-46
2023/10/14 11:28:14;;;;;;;;;;;20.20;62.10;;;15.94;100.00;95292.22;4994424;28;19910;-46
2023/10/14 11:30:47;;;;;;;;;;;20.10;62.30;;;15.94;100.00;95286.06;4993659;28;19909;-46
2023/10/14 11:33:17;;;;;;;;;;;20.00;62.60;;;15.87;100.00;95273.06;4994576;28;20012;-46
2023/10/14 11:35:42;;;;;;;;;;;19.90;63.40;;;15.75;100.00;95262.09;4993534;28;19924;-49
2023/10/14 11:38:13;;;;;;;;;;;19.90;63.40;;;15.66;100.00;95288.03;4994635;28;19909;-46
2023/10/14 11:40:51;;;;;;;;;;;19.80;62.90;;;15.53;100.00;95270.88;4994118;28;19923;-46
2023/10/14 11:43:21;;;;;;;;;;;19.80;63.20;;;15.56;100.00;95275.66;4992324;28;19921;-48
2023/10/14 11:45:47;;;;;;;;;;;19.80;63.30;;;15.75;100.00;95264.78;4994114;28;19963;-46
2023/10/14 11:48:33;;;;;;;;;;;20.00;63.40;;;15.88;100.00;95263.13;4993622;28;20364;-45
2023/10/14 11:51:02;;;;;;;;;;;20.30;63.40;;;16.07;100.00;95257.56;4987308;28;19960;-51
2023/10/14 11:53:32;;;;;;;;;;;20.40;63.30;;;16.05;100.00;95260.56;4994506;28;20292;-45
2023/10/14 11:56:01;;;;;;;;;;;20.70;63.20;;;16.49;100.00;95253.53;4993331;28;19964;-46
2023/10/14 11:58:30;;;;;;;;;;;21.20;63.00;;;16.92;100.00;95255.59;4994121;28;19910;-49
2023/10/14 12:00:57;;;;;;;;;;;21.80;62.80;;;17.08;100.00;95248.69;4993114;28;20418;-47
2023/10/14 12:03:25;;;;;;;;;;;22.30;62.50;;;17.45;100.00;95243.00;4993353;28;19959;-47
2023/10/14 12:05:59;;;;;;;;;;;22.80;62.00;;;17.70;100.00;95236.84;4993166;28;20312;-47
2023/10/14 12:08:28;;;;;;;;;;;23.30;61.70;;;17.91;100.00;95228.13;4994206;28;20379;-47
2023/10/14 12:10:57;;;;;;;;;;;23.40;62.10;;;17.99;100.00;95232.72;4993550;28;19987;-49
2023/10/14 12:13:24;;;;;;;;;;;23.50;60.80;;;17.82;100.00;95217.38;4993107;28;19947;-47
2023/10/14 12:15:50;;;;;;;;;;;23.40;61.30;;;17.69;100.00;95218.31;4993667;28;20026;-47
2023/10/14 12:18:17;;;;;;;;;;;23.30;60.30;;;17.53;100.00;95218.78;4992989;28;20396;-48
2023/10/14 12:20:46;;;;;;;;;;;23.10;60.20;;;17.53;100.00;95215.31;4993480;28;19914;-49
2023/10/14 12:23:19;;;;;;;;;;;22.90;60.20;;;17.48;100.00;95228.91;4993795;28;19963;-48
2023/10/14 12:25:54;;;;;;;;;;;22.80;60.20;;;17.28;100.00;95225.75;4992703;28;19956;-48
2023/10/14 12:28:26;;;;;;;;;;;22.70;60.30;;;17.35;100.00;95226.06;4993570;28;19913;-50